Time;durP1;ratioP1;P1;durP2;ratioP2;P2;SDS_P1;SDS_P2;PMS_P1;PMS_P2;Temp;Humidity;BMP_temperature;BMP_pressure;BME280_temperature;BME280_humidity;BME280_pressure;Samples;Min_cycle;Max_cycle;Signal;HPM_P1;HPM_P2
2023/06/14 00:01:55;;;;;;;9.35;3.55;;;;;;;18.02;100.00;101470.78;5014311;28;20417;-68
2023/06/14 00:04:25;;;;;;;7.22;2.80;;;;;;;17.90;100.00;101473.25;4990672;28;20057;-68
2023/06/14 00:06:52;;;;;;;10.45;3.53;;;;;;;17.95;100.00;101479.16;5015850;28;20078;-68
2023/06/14 00:09:19;;;;;;;8.32;2.65;;;;;;;17.96;100.00;101467.63;5003101;28;20140;-68
2023/06/14 00:11:45;;;;;;;8.18;3.05;;;;;;;18.05;100.00;101464.44;5016462;28;20105;-68
2023/06/14 00:14:12;;;;;;;9.45;2.90;;;;;;;18.11;100.00;101471.19;5017848;28;20586;-68
2023/06/14 00:16:42;;;;;;;11.68;3.50;;;;;;;17.96;100.00;101471.13;5003802;28;20480;-68
2023/06/14 00:19:10;;;;;;;9.02;3.50;;;;;;;18.08;100.00;101472.22;5008426;28;20093;-68
2023/06/14 00:21:37;;;;;;;9.48;3.58;;;;;;;18.06;100.00;101481.19;5021935;28;20052;-69
2023/06/14 00:24:05;;;;;;;7.50;2.70;;;;;;;18.26;100.00;101485.34;5019751;28;20056;-68
2023/06/14 00:26:32;;;;;;;7.78;2.90;;;;;;;18.24;100.00;101476.63;5016942;28;20053;-69
2023/06/14 00:28:59;;;;;;;7.05;2.83;;;;;;;18.17;100.00;101478.78;5012416;28;20058;-70
2023/06/14 00:31:26;;;;;;;6.75;2.67;;;;;;;18.17;100.00;101492.88;5001876;28;20041;-69
2023/06/14 00:33:52;;;;;;;6.20;2.40;;;;;;;18.15;100.00;101483.28;5010606;28;20518;-69
2023/06/14 00:36:19;;;;;;;8.07;2.85;;;;;;;18.19;100.00;101490.16;5029199;28;20409;-69
2023/06/14 00:38:46;;;;;;;9.15;2.97;;;;;;;18.14;100.00;101479.81;4997415;28;20042;-69
2023/06/14 00:41:12;;;;;;;14.63;4.28;;;;;;;18.15;100.00;101489.47;5017200;28;20522;-69
2023/06/14 00:43:39;;;;;;;8.85;3.67;;;;;;;18.01;100.00;101489.41;5020647;28;20052;-69
2023/06/14 00:46:06;;;;;;;8.40;3.08;;;;;;;17.89;100.00;101488.31;5013476;28;20132;-69
2023/06/14 00:48:34;;;;;;;8.38;3.05;;;;;;;17.91;100.00;101478.47;5013292;28;20046;-68
2023/06/14 00:51:03;;;;;;;9.02;2.90;;;;;;;17.90;100.00;101489.16;5027305;28;20045;-68
2023/06/14 00:53:34;;;;;;;9.18;3.10;;;;;;;17.97;100.00;101493.16;5014195;28;20131;-68
2023/06/14 00:56:01;;;;;;;8.10;2.63;;;;;;;17.99;100.00;101494.78;5018720;28;20063;-68
2023/06/14 00:58:28;;;;;;;8.68;3.15;;;;;;;17.89;100.00;101477.72;5013297;28;20548;-68
2023/06/14 01:00:56;;;;;;;7.45;2.85;;;;;;;18.03;100.00;101500.78;5015103;28;20050;-68
2023/06/14 01:03:23;;;;;;;8.57;3.40;;;;;;;17.92;100.00;101493.44;5028272;28;20148;-68
2023/06/14 01:06:10;;;;;;;8.90;2.95;;;;;;;18.01;100.00;101498.22;5004817;28;20128;-68
2023/06/14 01:08:37;;;;;;;8.57;3.05;;;;;;;17.91;100.00;101498.81;5012168;28;20077;-68
2023/06/14 01:11:25;;;;;;;15.50;4.13;;;;;;;17.90;100.00;101494.44;5023550;28;20543;-68
2023/06/14 01:13:53;;;;;;;9.98;3.35;;;;;;;17.92;100.00;101503.16;5021737;28;20092;-69
2023/06/14 01:16:20;;;;;;;10.65;3.75;;;;;;;17.79;100.00;101490.56;5019562;28;20651;-69
2023/06/14 01:18:49;;;;;;;15.65;4.55;;;;;;;17.70;100.00;101506.97;5019025;28;20056;-69
2023/06/14 01:21:25;;;;;;;9.40;3.60;;;;;;;17.72;100.00;101501.59;5017072;28;20522;-68
2023/06/14 01:23:54;;;;;;;11.30;3.15;;;;;;;17.70;100.00;101501.69;5030325;28;20168;-68
2023/06/14 01:26:26;;;;;;;10.82;4.50;;;;;;;17.62;100.00;101493.31;5031583;28;20052;-68
2023/06/14 01:28:56;;;;;;;14.82;3.90;;;;;;;17.62;100.00;101498.63;5007267;28;20556;-68
2023/06/14 01:31:24;;;;;;;10.30;3.70;;;;;;;17.62;100.00;101499.47;5015443;28;20080;-68
2023/06/14 01:33:51;;;;;;;9.90;4.00;;;;;;;17.56;100.00;101497.13;5014345;28;20239;-68
2023/06/14 01:36:22;;;;;;;8.82;3.25;;;;;;;17.64;100.00;101494.94;5015223;28;20580;-68
2023/06/14 01:38:51;;;;;;;10.80;4.05;;;;;;;17.63;100.00;101487.91;5015649;28;20062;-68
2023/06/14 01:41:20;;;;;;;10.07;3.45;;;;;;;17.62;100.00;101475.63;5021532;28;20406;-68
2023/06/14 01:43:49;;;;;;;10.73;3.45;;;;;;;17.63;100.00;101479.13;5026070;28;20056;-68
2023/06/14 01:46:16;;;;;;;10.90;3.35;;;;;;;17.80;100.00;101486.16;5031423;28;20461;-68
2023/06/14 01:48:43;;;;;;;11.48;3.42;;;;;;;17.86;100.00;101484.97;5001472;28;20570;-68
2023/06/14 01:51:10;;;;;;;8.52;3.20;;;;;;;17.60;100.00;101493.41;5019789;28;20049;-68
2023/06/14 01:53:37;;;;;;;9.57;3.70;;;;;;;17.64;100.00;101489.63;5010948;28;20054;-68
2023/06/14 01:56:04;;;;;;;12.32;3.55;;;;;;;17.64;100.00;101497.59;5020736;28;20152;-68
2023/06/14 01:58:31;;;;;;;9.63;3.40;;;;;;;17.72;100.00;101499.78;5002755;28;20270;-68
2023/06/14 02:00:58;;;;;;;11.55;3.35;;;;;;;17.88;100.00;101486.59;5016677;28;20388;-69
2023/06/14 02:03:24;;;;;;;7.55;2.97;;;;;;;17.93;100.00;101483.69;5017829;28;20107;-69
2023/06/14 02:05:52;;;;;;;10.10;3.28;;;;;;;17.86;100.00;101488.47;5022146;28;20380;-69
2023/06/14 02:08:19;;;;;;;7.57;2.85;;;;;;;17.94;100.00;101482.75;5015287;28;20546;-69
2023/06/14 02:10:45;;;;;;;8.65;3.22;;;;;;;17.94;100.00;101494.19;5002708;28;20133;-68
2023/06/14 02:13:12;;;;;;;7.88;2.83;;;;;;;17.63;100.00;101479.97;5017350;28;20058;-69
2023/06/14 02:15:40;;;;;;;10.45;3.55;;;;;;;17.68;100.00;101495.63;5014731;28;20056;-68
2023/06/14 02:18:06;;;;;;;9.85;3.10;;;;;;;17.60;100.00;101484.59;5002551;28;20137;-69
2023/06/14 02:20:33;;;;;;;13.50;3.78;;;;;;;17.46;100.00;101466.84;5019502;28;20045;-69
2023/06/14 02:23:00;;;;;;;11.77;3.88;;;;;;;17.51;100.00;101482.44;5012454;28;20065;-69
2023/06/14 02:25:27;;;;;;;9.63;4.00;;;;;;;17.37;100.00;101470.84;5023560;28;20049;-69
2023/06/14 02:27:55;;;;;;;10.52;3.80;;;;;;;17.41;100.00;101482.97;5019351;28;20045;-69
2023/06/14 02:30:22;;;;;;;10.73;3.78;;;;;;;17.42;100.00;101478.50;5003162;28;20047;-69
2023/06/14 02:32:50;;;;;;;9.15;3.75;;;;;;;17.41;100.00;101479.47;5028172;28;20077;-69
2023/06/14 02:35:18;;;;;;;11.07;4.25;;;;;;;17.23;100.00;101479.53;5020850;28;20096;-69
2023/06/14 02:37:44;;;;;;;10.00;3.88;;;;;;;17.05;100.00;101476.06;5016679;28;20125;-69
2023/06/14 02:40:12;;;;;;;11.07;3.92;;;;;;;17.23;100.00;101479.53;5011977;28;20081;-69
2023/06/14 02:42:39;;;;;;;10.35;4.10;;;;;;;17.43;100.00;101483.72;5003048;28;20133;-67
2023/06/14 02:45:06;;;;;;;12.65;5.45;;;;;;;17.48;100.00;101482.66;5019065;28;20133;-67
2023/06/14 02:47:33;;;;;;;11.57;4.43;;;;;;;17.52;100.00;101482.38;5013648;28;20052;-67
2023/06/14 02:50:00;;;;;;;11.65;4.55;;;;;;;17.46;100.00;101480.91;5005656;28;20124;-69
2023/06/14 02:52:26;;;;;;;9.35;3.63;;;;;;;17.56;100.00;101481.25;5023989;28;20050;-68
2023/06/14 02:54:54;;;;;;;10.18;4.28;;;;;;;17.52;100.00;101474.44;5007485;28;20041;-67
2023/06/14 02:57:22;;;;;;;13.00;3.95;;;;;;;17.63;100.00;101479.97;5015075;28;20263;-67
2023/06/14 02:59:49;;;;;;;9.52;3.92;;;;;;;17.49;100.00;101465.81;5012371;28;20057;-68
2023/06/14 03:02:15;;;;;;;11.45;4.22;;;;;;;17.47;100.00;101471.19;5020140;28;20060;-68
2023/06/14 03:04:44;;;;;;;10.07;3.55;;;;;;;17.56;100.00;101472.47;5025223;28;20045;-68
2023/06/14 03:07:12;;;;;;;11.63;3.67;;;;;;;17.50;100.00;101483.41;5030246;28;20127;-68
2023/06/14 03:09:39;;;;;;;12.00;3.90;;;;;;;17.45;100.00;101483.66;5022735;28;20124;-68
2023/06/14 03:12:07;;;;;;;9.95;3.80;;;;;;;17.41;100.00;101485.59;5022073;28;20491;-68
2023/06/14 03:14:34;;;;;;;10.68;3.58;;;;;;;17.32;100.00;101485.28;5016313;28;20401;-68
2023/06/14 03:17:05;;;;;;;9.32;3.97;;;;;;;17.25;100.00;101479.44;5025593;28;20081;-68
2023/06/14 03:19:31;;;;;;;11.27;3.55;;;;;;;17.17;100.00;101473.69;5020293;28;20045;-68
2023/06/14 03:21:58;;;;;;;13.45;4.88;;;;;;;17.14;100.00;101477.38;5027515;28;20487;-68
2023/06/14 03:24:28;;;;;;;11.07;3.83;;;;;;;17.22;100.00;101477.81;5016833;28;20084;-68
2023/06/14 03:26:56;;;;;;;8.80;3.75;;;;;;;17.17;100.00;101463.13;5019599;28;20045;-67
2023/06/14 03:29:23;;;;;;;9.50;3.30;;;;;;;17.25;100.00;101467.06;5006462;28;20395;-68
2023/06/14 03:32:01;;;;;;;10.60;3.97;;;;;;;17.22;100.00;101472.50;5021336;28;20053;-68
2023/06/14 03:34:28;;;;;;;9.35;3.72;;;;;;;17.17;100.00;101473.69;5013335;28;20081;-68
2023/06/14 03:36:55;;;;;;;8.93;2.90;;;;;;;17.33;100.00;101482.50;5028120;28;20483;-68
2023/06/14 03:39:22;;;;;;;10.68;3.53;;;;;;;17.46;100.00;101477.44;4998591;28;20042;-68
2023/06/14 03:41:48;;;;;;;9.68;3.33;;;;;;;17.43;100.00;101473.13;5030313;28;20052;-68
2023/06/14 03:44:18;;;;;;;10.70;3.83;;;;;;;17.31;100.00;101486.19;5006253;28;20411;-68
2023/06/14 03:46:47;;;;;;;10.80;3.53;;;;;;;17.40;100.00;101486.53;5011537;28;20700;-68
2023/06/14 03:49:16;;;;;;;9.00;3.60;;;;;;;17.43;100.00;101485.53;5004927;28;20045;-68
2023/06/14 03:51:43;;;;;;;10.75;3.75;;;;;;;17.20;100.00;101474.38;5018147;28;20136;-68
2023/06/14 03:54:10;;;;;;;10.35;4.13;;;;;;;17.06;100.00;101469.81;5001006;28;20053;-68
2023/06/14 03:56:57;;;;;;;10.68;4.13;;;;;;;17.08;100.00;101496.22;5010646;28;20518;-68
2023/06/14 03:59:24;;;;;;;9.95;3.92;;;;;;;17.08;100.00;101499.69;5002507;28;20053;-68
2023/06/14 04:01:50;;;;;;;10.88;3.80;;;;;;;17.10;100.00;101496.13;5010386;28;20053;-67
2023/06/14 04:04:18;;;;;;;9.27;3.58;;;;;;;17.27;100.00;101496.94;5005394;28;20513;-68
2023/06/14 04:06:48;;;;;;;10.43;4.00;;;;;;;17.31;100.00;101496.78;5011628;28;20050;-68
2023/06/14 04:09:15;;;;;;;8.38;3.33;;;;;;;17.32;100.00;101488.75;5006377;28;20137;-68
2023/06/14 04:11:41;;;;;;;11.73;4.13;;;;;;;17.76;100.00;101497.81;5010660;28;20078;-68
2023/06/14 04:14:08;;;;;;;12.82;4.38;;;;;;;18.18;100.00;101496.38;5003601;28;20053;-68
2023/06/14 04:16:35;;;;;;;8.98;3.40;;;;;;;18.70;100.00;101495.13;5020314;28;20053;-68
2023/06/14 04:19:02;;;;;;;9.55;3.10;;;;;;;19.36;100.00;101491.13;5004700;28;20046;-68
2023/06/14 04:21:29;;;;;;;9.93;3.80;;;;;;;19.40;100.00;101491.78;5010248;28;20416;-68
2023/06/14 04:23:55;;;;;;;11.68;3.70;;;;;;;19.63;100.00;101498.28;5005767;28;20052;-68
2023/06/14 04:26:23;;;;;;;8.85;3.65;;;;;;;20.04;100.00;101505.41;5005377;28;20042;-68
2023/06/14 04:28:53;;;;;;;9.07;3.45;;;;;;;20.22;100.00;101495.38;5000366;28;20130;-68
2023/06/14 04:31:24;;;;;;;13.15;3.95;;;;;;;20.44;100.00;101506.28;5002541;28;20045;-68
2023/06/14 04:33:53;;;;;;;9.52;3.83;;;;;;;20.89;100.00;101510.44;5001342;28;20054;-68
2023/06/14 04:36:20;;;;;;;10.70;3.63;;;;;;;20.90;100.00;101510.34;5006522;28;20132;-68
2023/06/14 04:38:48;;;;;;;10.85;4.85;;;;;;;21.45;100.00;101500.28;5006561;28;20466;-68
2023/06/14 04:41:16;;;;;;;12.85;4.43;;;;;;;21.37;100.00;101500.84;5001067;28;20053;-68
2023/06/14 04:43:42;;;;;;;12.85;3.70;;;;;;;21.44;100.00;101509.22;5002062;28;20277;-68
2023/06/14 04:46:10;;;;;;;8.40;3.50;;;;;;;21.80;100.00;101505.75;5004702;28;20050;-68
2023/06/14 04:48:42;;;;;;;10.57;3.40;;;;;;;21.85;100.00;101520.56;5002709;28;20042;-68
2023/06/14 04:51:09;;;;;;;10.67;3.70;;;;;;;22.07;100.00;101515.34;5000627;28;20047;-68
2023/06/14 04:53:36;;;;;;;9.05;3.83;;;;;;;21.80;100.00;101518.25;5007540;28;20542;-68
2023/06/14 04:56:04;;;;;;;10.98;4.30;;;;;;;20.81;100.00;101501.16;5003534;28;20047;-68
2023/06/14 04:58:31;;;;;;;9.27;4.05;;;;;;;20.52;100.00;101523.53;5003872;28;20100;-68
2023/06/14 05:00:59;;;;;;;12.50;4.20;;;;;;;19.93;100.00;101500.81;5009845;28;20058;-68
2023/06/14 05:03:27;;;;;;;10.65;3.65;;;;;;;19.97;100.00;101512.94;5007817;28;20133;-68
2023/06/14 05:05:54;;;;;;;12.05;3.97;;;;;;;20.23;100.00;101516.56;5000146;28;20128;-68
2023/06/14 05:08:24;;;;;;;11.02;3.28;;;;;;;20.12;100.00;101510.25;5007758;28;20042;-68
2023/06/14 05:10:51;;;;;;;8.70;3.53;;;;;;;19.99;100.00;101519.03;5007158;28;20050;-68
2023/06/14 05:13:18;;;;;;;10.32;3.75;;;;;;;19.86;100.00;101520.75;5006713;28;20050;-68
2023/06/14 05:15:45;;;;;;;9.60;3.80;;;;;;;19.76;100.00;101523.19;5008231;28;20049;-68
2023/06/14 05:18:13;;;;;;;11.15;3.50;;;;;;;20.28;100.00;101535.72;5008769;28;20144;-68
2023/06/14 05:20:41;;;;;;;11.90;3.60;;;;;;;21.36;100.00;101536.41;5002617;28;20080;-68
2023/06/14 05:23:14;;;;;;;10.90;3.38;;;;;;;21.78;100.00;101544.16;5001478;28;20050;-68
2023/06/14 05:25:46;;;;;;;9.75;3.60;;;;;;;20.94;100.00;101551.75;5011404;28;20096;-68
2023/06/14 05:28:13;;;;;;;11.32;4.18;;;;;;;20.43;100.00;101547.16;5016356;28;20132;-68
2023/06/14 05:30:40;;;;;;;9.23;3.67;;;;;;;20.33;100.00;101553.16;5008233;28;20100;-68
2023/06/14 05:33:07;;;;;;;9.20;3.30;;;;;;;20.35;100.00;101546.81;5006835;28;20129;-69
2023/06/14 05:35:34;;;;;;;14.38;4.30;;;;;;;20.75;100.00;101556.63;5004454;28;20077;-69
2023/06/14 05:38:01;;;;;;;11.77;4.45;;;;;;;20.64;100.00;101546.69;5008541;28;20054;-69
2023/06/14 05:40:27;;;;;;;10.85;3.83;;;;;;;20.19;100.00;101546.13;5004581;28;20096;-68
2023/06/14 05:45:36;;;;;;;8.93;3.88;;;;;;;19.94;100.00;101541.53;5077711;23;20406;-73
2023/06/14 05:48:03;;;;;;;10.50;3.83;;;;;;;20.13;100.00;101542.03;5016507;28;20050;-74
2023/06/14 05:50:30;;;;;;;10.43;4.15;;;;;;;19.67;100.00;101545.84;5019202;28;20057;-74
2023/06/14 05:52:57;;;;;;;9.27;3.22;;;;;;;19.65;100.00;101549.50;5022826;28;20526;-74
2023/06/14 05:55:24;;;;;;;10.50;3.60;;;;;;;19.75;100.00;101542.72;5016161;28;20482;-74
2023/06/14 05:57:51;;;;;;;11.20;3.90;;;;;;;19.83;100.00;101544.88;5023183;28;20055;-74
2023/06/14 06:00:19;;;;;;;10.90;3.55;;;;;;;19.99;100.00;101547.41;5020249;28;20403;-74
2023/06/14 06:02:47;;;;;;;8.00;3.10;;;;;;;20.19;100.00;101552.28;5016149;28;20490;-74
2023/06/14 06:05:15;;;;;;;9.25;3.60;;;;;;;20.21;100.00;101541.56;5016178;28;20048;-73
2023/06/14 06:07:45;;;;;;;13.73;4.50;;;;;;;20.18;100.00;101542.59;5032757;28;20141;-73
2023/06/14 06:10:12;;;;;;;13.50;4.05;;;;;;;20.24;100.00;101546.69;5017193;28;20069;-73
2023/06/14 06:12:41;;;;;;;10.30;3.80;;;;;;;20.59;100.00;101562.97;5014522;28;20049;-73
2023/06/14 06:15:11;;;;;;;11.88;3.63;;;;;;;20.73;100.00;101556.72;5013968;28;20054;-73
2023/06/14 06:17:39;;;;;;;10.30;3.88;;;;;;;20.54;100.00;101562.41;5016684;28;20463;-73
2023/06/14 06:20:27;;;;;;;9.48;4.18;;;;;;;20.09;100.00;101549.34;5019718;28;20053;-73
2023/06/14 06:22:55;;;;;;;12.93;5.28;;;;;;;20.05;100.00;101547.84;5017854;28;20046;-74
2023/06/14 06:25:22;;;;;;;12.73;4.65;;;;;;;20.25;100.00;101557.19;5020225;28;20052;-73
2023/06/14 06:27:49;;;;;;;11.05;3.95;;;;;;;20.53;100.00;101567.81;5024025;28;20157;-73
2023/06/14 06:30:16;;;;;;;10.35;4.50;;;;;;;20.34;100.00;101568.19;5038483;28;20045;-73
2023/06/14 06:32:43;;;;;;;9.38;3.65;;;;;;;20.84;100.00;101574.63;5030411;28;20049;-73
2023/06/14 06:35:10;;;;;;;17.65;5.90;;;;;;;21.09;100.00;101578.25;5027435;28;20049;-73
2023/06/14 06:37:38;;;;;;;10.73;4.13;;;;;;;21.07;100.00;101577.53;5027219;28;20045;-74
2023/06/14 06:40:05;;;;;;;16.92;4.75;;;;;;;21.85;100.00;101571.19;5030738;28;20053;-74
2023/06/14 06:42:32;;;;;;;11.88;4.07;;;;;;;22.23;100.00;101579.06;5031165;28;20139;-74
2023/06/14 06:44:59;;;;;;;12.02;3.78;;;;;;;21.92;100.00;101575.13;5030267;28;20067;-74
2023/06/14 06:47:26;;;;;;;10.88;3.88;;;;;;;22.58;100.00;101580.97;5020683;28;20050;-74
2023/06/14 06:49:53;;;;;;;12.52;4.68;;;;;;;22.83;100.00;101565.78;5026553;28;20095;-74
2023/06/14 06:52:20;;;;;;;11.70;4.20;;;;;;;22.57;100.00;101576.59;5029509;28;20046;-74
2023/06/14 06:54:46;;;;;;;12.15;4.50;;;;;;;22.14;100.00;101569.09;5027808;28;20087;-74
2023/06/14 06:57:13;;;;;;;10.45;3.80;;;;;;;22.27;100.00;101572.56;5027867;28;20056;-74
2023/06/14 06:59:40;;;;;;;12.35;3.85;;;;;;;21.83;100.00;101557.97;5027178;28;20049;-74
2023/06/14 07:02:07;;;;;;;11.35;3.63;;;;;;;22.22;100.00;101569.34;5029146;28;20140;-74
2023/06/14 07:04:34;;;;;;;12.80;4.45;;;;;;;22.32;100.00;101574.91;5028473;28;20180;-74
2023/06/14 07:07:01;;;;;;;10.18;3.50;;;;;;;23.42;100.00;101573.66;5029819;28;20160;-74
2023/06/14 07:09:28;;;;;;;8.35;3.28;;;;;;;24.00;100.00;101578.84;5024468;28;20044;-74
2023/06/14 07:11:54;;;;;;;10.93;3.97;;;;;;;23.89;100.00;101554.81;5020890;28;20053;-74
2023/06/14 07:14:22;;;;;;;11.63;3.80;;;;;;;24.67;100.00;101574.28;5029962;28;20561;-74
2023/06/14 07:16:49;;;;;;;12.75;5.25;;;;;;;24.72;100.00;101579.22;5028220;28;20076;-74
2023/06/14 07:19:17;;;;;;;12.70;4.68;;;;;;;24.99;100.00;101584.09;5028654;28;20119;-74
2023/06/14 07:21:43;;;;;;;12.18;3.78;;;;;;;25.57;100.00;101584.41;5018517;28;20076;-74
2023/06/14 07:24:10;;;;;;;9.27;4.00;;;;;;;25.58;100.00;101587.94;5029175;28;20241;-75
2023/06/14 07:26:37;;;;;;;8.90;3.40;;;;;;;25.60;100.00;101583.28;5022888;28;20132;-75
2023/06/14 07:29:04;;;;;;;9.80;3.70;;;;;;;25.53;100.00;101577.63;5026860;28;20716;-74
2023/06/14 07:31:30;;;;;;;13.32;5.15;;;;;;;24.91;100.00;101565.97;5020870;28;20143;-75
2023/06/14 07:33:57;;;;;;;8.85;3.40;;;;;;;25.33;100.00;101582.03;5018979;28;20651;-75
2023/06/14 07:36:24;;;;;;;9.25;3.72;;;;;;;25.26;100.00;101583.56;5028461;28;20060;-75
2023/06/14 07:38:51;;;;;;;10.75;4.00;;;;;;;25.49;100.00;101591.44;5029999;28;20053;-74
2023/06/14 07:41:18;;;;;;;13.18;4.68;;;;;;;25.65;100.00;101585.56;5027376;28;20132;-74
2023/06/14 07:43:44;;;;;;;10.23;3.75;;;;;;;25.92;100.00;101587.63;5030257;28;20049;-74
2023/06/14 07:46:11;;;;;;;13.23;4.70;;;;;;;25.93;100.00;101583.97;5030141;28;20080;-74
2023/06/14 07:48:38;;;;;;;9.43;3.97;;;;;;;26.11;100.00;101579.66;5030076;28;20076;-74
2023/06/14 07:51:05;;;;;;;10.35;3.72;;;;;;;26.13;100.00;101588.44;5030504;28;20115;-74
2023/06/14 07:53:31;;;;;;;10.90;4.53;;;;;;;26.19;100.00;101572.72;5028888;28;20053;-74
2023/06/14 07:55:58;;;;;;;11.70;4.60;;;;;;;26.03;100.00;101576.81;5030624;28;20049;-74
2023/06/14 07:58:25;;;;;;;11.50;4.28;;;;;;;26.42;100.00;101579.53;5030900;28;20399;-74
2023/06/14 08:00:52;;;;;;;12.90;5.07;;;;;;;26.34;100.00;101584.75;5048224;28;20043;-74
2023/06/14 08:03:19;;;;;;;11.38;3.78;;;;;;;26.66;100.00;101580.97;5037506;28;20050;-74
2023/06/14 08:05:46;;;;;;;11.20;4.07;;;;;;;26.70;100.00;101571.63;5019571;28;20050;-74
2023/06/14 08:08:13;;;;;;;10.30;3.72;;;;;;;27.09;100.00;101593.94;5050681;28;20053;-74
2023/06/14 08:10:40;;;;;;;9.32;3.90;;;;;;;26.74;100.00;101578.44;5050429;28;20376;-74
2023/06/14 08:13:06;;;;;;;13.98;4.88;;;;;;;26.24;100.00;101581.22;5041113;28;20128;-74
2023/06/14 08:15:33;;;;;;;12.90;4.72;;;;;;;26.47;100.00;101593.41;5025114;28;20061;-74
2023/06/14 08:18:01;;;;;;;18.05;4.10;;;;;;;26.81;100.00;101592.16;5030454;28;20053;-74
2023/06/14 08:20:30;;;;;;;12.13;4.18;;;;;;;27.29;100.00;101591.22;5030476;28;20054;-74
2023/06/14 08:22:57;;;;;;;9.35;3.70;;;;;;;27.94;100.00;101596.63;5028842;28;20514;-74
2023/06/14 08:25:24;;;;;;;12.10;4.40;;;;;;;27.16;100.00;101602.25;5021356;28;20144;-74
2023/06/14 08:27:50;;;;;;;10.38;3.78;;;;;;;27.19;100.00;101593.06;5030430;28;20127;-74
2023/06/14 08:30:17;;;;;;;12.45;4.40;;;;;;;26.94;100.00;101599.91;5026795;28;20053;-74
2023/06/14 08:32:44;;;;;;;21.48;5.78;;;;;;;27.24;100.00;101599.69;5029574;28;20386;-74
2023/06/14 08:35:12;;;;;;;11.85;4.70;;;;;;;26.68;100.00;101589.72;5028234;28;20136;-73
2023/06/14 08:37:42;;;;;;;10.77;5.28;;;;;;;27.44;100.00;101600.47;5021980;28;20046;-71
2023/06/14 08:40:23;;;;;;;13.20;4.68;;;;;;;27.56;99.70;101600.31;5029159;28;20053;-71
2023/06/14 08:42:52;;;;;;;12.77;4.60;;;;;;;26.56;100.00;101601.59;5041575;28;20049;-71
2023/06/14 08:45:21;;;;;;;11.70;4.57;;;;;;;25.90;100.00;101594.97;5044630;28;20056;-71
2023/06/14 08:47:57;;;;;;;13.18;3.80;;;;;;;26.18;100.00;101596.03;5039440;28;20052;-72
2023/06/14 08:50:27;;;;;;;9.48;3.33;;;;;;;26.76;100.00;101599.78;5038476;28;20435;-71
2023/06/14 08:53:00;;;;;;;9.75;3.95;;;;;;;27.08;100.00;101602.13;5044623;28;20106;-70
2023/06/14 08:55:28;;;;;;;12.55;4.57;;;;;;;27.27;100.00;101602.13;5030255;28;20049;-70
2023/06/14 08:58:00;;;;;;;9.07;3.47;;;;;;;27.50;100.00;101609.81;5032979;28;20060;-71
2023/06/14 09:00:27;;;;;;;9.52;4.25;;;;;;;27.42;100.00;101602.47;5047520;28;20048;-70
2023/06/14 09:02:57;;;;;;;9.52;3.58;;;;;;;27.55;100.00;101596.78;5034558;28;20538;-70
2023/06/14 09:05:26;;;;;;;10.20;4.20;;;;;;;27.71;100.00;101604.22;5020116;28;20057;-71
2023/06/14 09:07:56;;;;;;;9.20;4.13;;;;;;;28.15;93.12;101606.25;5052065;28;20462;-71
2023/06/14 09:10:25;;;;;;;11.68;4.30;;;;;;;28.02;91.84;101596.69;5031960;28;20569;-71
2023/06/14 09:12:53;;;;;;;13.05;3.97;;;;;;;28.00;93.05;101590.63;5046665;28;20057;-70
2023/06/14 09:15:20;;;;;;;11.70;4.35;;;;;;;27.37;93.52;101594.00;5041608;28;20048;-70
2023/06/14 09:17:47;;;;;;;12.07;4.97;;;;;;;26.94;99.79;101605.28;5052688;28;20175;-71
2023/06/14 09:20:18;;;;;;;11.07;4.70;;;;;;;27.18;94.95;101605.66;5033158;28;20037;-71
2023/06/14 09:22:46;;;;;;;11.70;4.03;;;;;;;27.42;100.00;101601.63;5046122;28;20045;-70
2023/06/14 09:25:15;;;;;;;10.02;3.85;;;;;;;27.73;100.00;101606.72;5032378;28;20049;-71
2023/06/14 09:28:02;;;;;;;12.73;4.90;;;;;;;26.81;100.00;101601.03;5049259;28;20052;-71
2023/06/14 09:30:28;;;;;;;12.02;4.35;;;;;;;26.99;100.00;101600.31;5043053;28;20045;-71
2023/06/14 09:32:56;;;;;;;9.85;4.22;;;;;;;27.49;100.00;101600.06;5036762;28;20057;-70
2023/06/14 09:35:29;;;;;;;10.15;3.90;;;;;;;27.59;100.00;101597.34;5030262;28;20053;-70
2023/06/14 09:37:56;;;;;;;10.65;3.70;;;;;;;27.94;100.00;101593.94;5053457;28;20048;-70
2023/06/14 09:40:23;;;;;;;11.20;4.30;;;;;;;28.53;100.00;101588.13;5041067;28;20041;-71
2023/06/14 09:42:52;;;;;;;11.70;4.50;;;;;;;28.71;100.00;101591.66;5039640;28;20049;-71
2023/06/14 09:45:21;;;;;;;12.30;5.28;;;;;;;27.95;100.00;101602.84;5051826;28;20127;-70
2023/06/14 09:47:51;;;;;;;16.77;5.57;;;;;;;28.10;100.00;101597.78;5053712;28;20084;-71
2023/06/14 09:50:33;;;;;;;12.32;4.82;;;;;;;27.45;100.00;101596.81;5039714;28;20045;-70
2023/06/14 09:53:06;;;;;;;14.55;4.75;;;;;;;28.00;100.00;101596.00;5049937;28;20537;-70
2023/06/14 09:55:37;;;;;;;10.93;4.55;;;;;;;27.90;98.57;101600.56;5034445;28;20053;-70
2023/06/14 09:58:06;;;;;;;11.73;4.22;;;;;;;27.30;100.00;101605.50;5041951;28;20445;-71
2023/06/14 10:00:34;;;;;;;11.38;3.92;;;;;;;27.38;91.65;101598.41;5047309;28;20549;-71
2023/06/14 10:03:08;;;;;;;11.07;4.40;;;;;;;27.95;90.33;101617.13;5044249;28;20054;-70
2023/06/14 10:05:36;;;;;;;12.13;4.72;;;;;;;27.52;91.22;101599.75;5047666;28;20405;-70
2023/06/14 10:08:09;;;;;;;10.77;4.38;;;;;;;27.55;87.35;101606.69;5052572;28;20085;-70
2023/06/14 10:10:38;;;;;;;12.45;4.53;;;;;;;27.31;92.04;101607.19;5022667;28;20120;-71
2023/06/14 10:13:06;;;;;;;10.32;4.25;;;;;;;27.69;90.81;101600.81;5018077;28;20055;-70
2023/06/14 10:15:48;;;;;;;11.43;4.22;;;;;;;27.94;85.00;101612.75;5037176;28;20056;-70
2023/06/14 10:18:38;;;;;;;12.30;4.70;;;;;;;27.31;88.67;101616.09;5050651;28;20132;-70
2023/06/14 10:21:25;;;;;;;11.82;4.82;;;;;;;27.28;86.31;101622.59;5028794;28;20096;-71
2023/06/14 10:23:59;;;;;;;19.80;5.00;;;;;;;26.77;82.47;101621.09;5022240;28;20049;-71
2023/06/14 10:26:27;;;;;;;14.00;4.57;;;;;;;27.38;83.74;101616.38;5033001;28;20458;-71
2023/06/14 10:28:59;;;;;;;10.77;4.45;;;;;;;27.22;78.85;101604.34;5041684;28;20441;-71
2023/06/14 10:31:44;;;;;;;10.27;3.97;;;;;;;27.11;86.97;101614.41;5049119;28;20037;-71
2023/06/14 10:34:23;;;;;;;13.40;4.70;;;;;;;27.80;81.49;101618.59;5031784;28;20406;-71
2023/06/14 10:37:13;;;;;;;12.85;4.63;;;;;;;27.88;81.47;101623.25;5032288;28;20111;-71
2023/06/14 10:39:47;;;;;;;12.70;4.75;;;;;;;27.76;85.04;101620.72;5035772;28;20140;-71
2023/06/14 10:42:15;;;;;;;11.25;4.05;;;;;;;27.21;84.42;101615.25;5035006;28;20356;-71
2023/06/14 10:44:55;;;;;;;9.70;4.10;;;;;;;27.46;84.52;101632.59;5045170;28;20493;-70
2023/06/14 10:47:27;;;;;;;9.40;4.05;;;;;;;27.16;85.64;101628.28;5051331;28;20461;-71
2023/06/14 10:50:01;;;;;;;13.10;4.75;;;;;;;26.98;86.17;101615.56;5039802;28;20463;-71
2023/06/14 10:52:29;;;;;;;11.18;4.43;;;;;;;27.66;90.26;101619.94;5051321;28;20044;-71
2023/06/14 10:54:56;;;;;;;11.93;4.47;;;;;;;28.22;79.26;101631.56;5027695;28;20050;-70
2023/06/14 10:57:23;;;;;;;12.13;4.13;;;;;;;28.48;79.69;101618.19;5042097;28;20056;-71
2023/06/14 10:59:50;;;;;;;10.45;3.78;;;;;;;27.90;78.05;101626.63;5029755;28;20164;-70
2023/06/14 11:03:13;;;;;;;9.82;4.10;;;;;;;28.08;74.07;101622.16;5040553;28;20053;-70
2023/06/14 11:05:53;;;;;;;11.60;4.05;;;;;;;27.73;73.45;101626.44;4988837;28;20542;-70
2023/06/14 11:08:23;;;;;;;10.43;4.00;;;;;;;27.78;69.00;101629.53;5025941;28;20045;-70
2023/06/14 11:10:51;;;;;;;13.48;3.95;;;;;;;27.76;71.78;101618.03;5045377;28;20128;-70
2023/06/14 11:13:18;;;;;;;9.73;4.15;;;;;;;28.02;70.49;101620.06;5029630;28;20041;-70
2023/06/14 11:15:46;;;;;;;10.32;3.72;;;;;;;28.68;71.33;101628.84;5045374;28;20055;-70
2023/06/14 11:18:14;;;;;;;8.88;3.50;;;;;;;28.50;67.97;101624.28;5023172;28;20049;-70
2023/06/14 11:20:41;;;;;;;9.82;4.10;;;;;;;28.23;65.44;101613.59;5033847;28;20084;-71
2023/06/14 11:23:07;;;;;;;11.60;4.32;;;;;;;27.57;67.80;101618.13;5044933;28;20052;-70
2023/06/14 11:25:34;;;;;;;12.10;4.53;;;;;;;27.60;71.55;101616.00;5041493;28;20059;-71